createdAt,value
2023-10-20T00:00:07.706Z,8.90
2023-10-20T00:02:35.714Z,9.38
2023-10-20T00:05:05.287Z,9.73
2023-10-20T00:07:33.052Z,9.60
2023-10-20T00:10:01.287Z,8.43
2023-10-20T00:12:28.866Z,10.40
2023-10-20T00:14:57.251Z,9.55
2023-10-20T00:17:25.011Z,8.55
2023-10-20T00:19:52.588Z,9.27
2023-10-20T00:22:20.545Z,9.60
2023-10-20T00:24:48.023Z,8.53
2023-10-20T00:27:15.681Z,9.30
2023-10-20T00:29:43.258Z,8.70
2023-10-20T00:32:12.104Z,9.25
2023-10-20T00:34:39.915Z,8.80
2023-10-20T00:37:08.098Z,8.40
2023-10-20T00:39:36.408Z,8.82
2023-10-20T00:42:04.399Z,8.73
2023-10-20T00:44:32.374Z,8.77
2023-10-20T00:47:00.404Z,9.18
2023-10-20T00:49:28.015Z,8.80
2023-10-20T00:51:55.916Z,8.60
2023-10-20T00:54:23.472Z,8.50
2023-10-20T00:56:51.081Z,7.75
2023-10-20T00:59:18.757Z,9.40
2023-10-20T01:01:46.835Z,8.45
2023-10-20T01:04:14.488Z,8.40
2023-10-20T01:06:44.553Z,8.07
2023-10-20T01:09:12.135Z,9.18
2023-10-20T01:11:40.145Z,8.10
2023-10-20T01:14:08.169Z,8.32
2023-10-20T01:16:35.783Z,8.10
2023-10-20T01:19:03.322Z,8.45
2023-10-20T01:21:30.950Z,8.25
2023-10-20T01:23:58.725Z,8.80
2023-10-20T01:26:26.998Z,9.23
2023-10-20T01:28:54.980Z,9.43
2023-10-20T01:31:24.039Z,8.30
2023-10-20T01:33:51.938Z,7.72
2023-10-20T01:36:19.565Z,8.27
2023-10-20T01:38:47.169Z,8.30
2023-10-20T01:41:14.726Z,8.60
2023-10-20T01:43:44.546Z,8.52
2023-10-20T01:46:12.164Z,8.95
2023-10-20T01:48:39.708Z,8.30
2023-10-20T01:51:07.316Z,9.05
2023-10-20T01:53:34.878Z,7.73
2023-10-20T01:56:02.551Z,8.30
2023-10-20T01:58:30.173Z,8.00
2023-10-20T02:00:57.764Z,8.20
2023-10-20T02:03:26.137Z,8.15
2023-10-20T02:05:53.934Z,8.43
2023-10-20T02:08:21.619Z,8.70
2023-10-20T02:10:49.218Z,8.35
2023-10-20T02:13:16.991Z,8.38
2023-10-20T02:15:52.062Z,8.65
2023-10-20T02:18:19.718Z,8.38
2023-10-20T02:21:05.544Z,8.10
2023-10-20T02:23:33.841Z,8.80
2023-10-20T02:26:08.695Z,8.38
2023-10-20T02:28:39.421Z,7.50
2023-10-20T02:31:15.324Z,8.38
2023-10-20T02:33:43.157Z,7.93
2023-10-20T02:36:10.703Z,9.23
2023-10-20T02:38:38.333Z,8.45
2023-10-20T02:41:06.455Z,8.73
2023-10-20T02:43:34.074Z,8.18
2023-10-20T02:46:02.132Z,7.47
2023-10-20T02:48:32.176Z,8.40
2023-10-20T02:51:08.485Z,8.13
2023-10-20T02:53:36.204Z,8.82
2023-10-20T02:56:14.271Z,7.85
2023-10-20T02:58:44.600Z,8.15
2023-10-20T03:01:17.272Z,8.60
2023-10-20T03:03:45.845Z,7.97
2023-10-20T03:06:13.671Z,7.55
2023-10-20T03:08:42.044Z,7.60
2023-10-20T03:11:10.740Z,8.48
2023-10-20T03:13:39.057Z,7.37
2023-10-20T03:16:07.343Z,8.02
2023-10-20T03:18:34.992Z,8.63
2023-10-20T03:21:03.755Z,8.55
2023-10-20T03:23:31.957Z,8.82
2023-10-20T03:25:59.782Z,8.77
2023-10-20T03:28:27.916Z,9.40
2023-10-20T03:30:55.685Z,9.30
2023-10-20T03:33:23.800Z,9.75
2023-10-20T03:36:02.582Z,9.10
2023-10-20T03:38:30.624Z,9.93
2023-10-20T03:41:11.546Z,9.38
2023-10-20T03:43:39.514Z,10.90
2023-10-20T03:46:07.144Z,10.68
2023-10-20T03:48:36.903Z,10.32
2023-10-20T03:51:08.957Z,10.70
2023-10-20T03:53:51.775Z,10.35
2023-10-20T03:56:23.889Z,11.00
2023-10-20T03:58:52.247Z,10.73
2023-10-20T04:01:20.834Z,10.30
2023-10-20T04:03:52.865Z,10.50
2023-10-20T04:06:23.675Z,9.90
2023-10-20T04:08:51.366Z,9.27
2023-10-20T04:11:19.191Z,10.93
2023-10-20T04:13:47.262Z,9.40
2023-10-20T04:16:15.608Z,10.97
2023-10-20T04:18:45.583Z,10.05
2023-10-20T04:21:13.627Z,10.50
2023-10-20T04:23:45.434Z,10.52
2023-10-20T04:26:21.727Z,11.90
2023-10-20T04:29:09.443Z,10.67
2023-10-20T04:31:55.827Z,11.27
2023-10-20T04:34:42.140Z,12.32
2023-10-20T04:37:29.459Z,11.80
2023-10-20T04:40:15.840Z,11.65
2023-10-20T04:42:53.966Z,11.80
2023-10-20T04:45:25.041Z,10.35
2023-10-20T04:48:12.101Z,10.05
2023-10-20T04:50:59.940Z,9.95
2023-10-20T04:53:46.026Z,11.55
2023-10-20T04:56:16.637Z,10.97
2023-10-20T04:58:51.040Z,11.40
2023-10-20T05:01:25.734Z,10.65
2023-10-20T05:03:59.102Z,11.20
2023-10-20T05:06:27.994Z,13.32
2023-10-20T05:08:55.686Z,13.03
2023-10-20T05:11:23.466Z,11.52
2023-10-20T05:13:51.387Z,11.43
2023-10-20T05:16:18.971Z,10.93
2023-10-20T05:18:46.614Z,10.10
2023-10-20T05:21:15.115Z,12.30
2023-10-20T05:23:42.922Z,10.43
2023-10-20T05:26:11.148Z,11.10
2023-10-20T05:28:38.867Z,12.70
2023-10-20T05:31:06.583Z,21.88
2023-10-20T05:33:34.445Z,18.27
2023-10-20T05:36:05.119Z,14.65
2023-10-20T05:38:33.426Z,14.10
2023-10-20T05:41:01.740Z,12.45
2023-10-20T05:43:31.606Z,12.35
2023-10-20T05:46:03.792Z,13.27
2023-10-20T05:48:32.330Z,10.75
2023-10-20T05:51:00.012Z,11.25
2023-10-20T05:53:29.864Z,10.50
2023-10-20T05:55:59.153Z,9.93
2023-10-20T05:58:26.779Z,9.43
2023-10-20T06:01:03.065Z,9.40
2023-10-20T06:03:32.391Z,9.10
2023-10-20T06:06:01.901Z,8.60
2023-10-20T06:08:30.470Z,8.80
2023-10-20T06:11:06.467Z,8.03
2023-10-20T06:13:36.711Z,8.65
2023-10-20T06:16:11.003Z,8.55
2023-10-20T06:18:41.419Z,9.23
2023-10-20T06:21:18.496Z,10.40
2023-10-20T06:23:49.726Z,9.47
2023-10-20T06:26:17.621Z,9.60
2023-10-20T06:28:48.308Z,8.95
2023-10-20T06:31:34.451Z,9.77
2023-10-20T06:34:14.437Z,8.35
2023-10-20T06:36:48.625Z,9.65
2023-10-20T06:39:20.349Z,10.37
2023-10-20T06:41:48.873Z,9.35
2023-10-20T06:44:21.086Z,8.23
2023-10-20T06:46:52.609Z,8.75
2023-10-20T06:49:20.624Z,8.50
2023-10-20T06:51:49.465Z,8.67
2023-10-20T06:54:20.726Z,8.95
2023-10-20T06:56:48.356Z,8.50
2023-10-20T06:59:22.559Z,7.43
2023-10-20T07:01:52.390Z,8.50
2023-10-20T07:04:20.660Z,8.63
2023-10-20T07:06:48.345Z,10.40
2023-10-20T07:09:15.945Z,9.80
2023-10-20T07:11:45.143Z,13.20
2023-10-20T07:14:13.079Z,12.35
2023-10-20T07:16:40.897Z,12.87
2023-10-20T07:19:08.837Z,12.13
2023-10-20T07:21:36.702Z,11.70
2023-10-20T07:24:04.577Z,11.50
2023-10-20T07:26:32.211Z,13.85
2023-10-20T07:28:59.929Z,10.93
2023-10-20T07:31:27.890Z,12.33
2023-10-20T07:33:55.596Z,12.20
2023-10-20T07:36:23.287Z,9.35
2023-10-20T07:38:51.097Z,10.35
2023-10-20T07:41:18.824Z,9.63
2023-10-20T07:43:46.547Z,10.27
2023-10-20T07:46:18.523Z,10.95
2023-10-20T07:48:46.752Z,11.50
2023-10-20T07:51:14.585Z,9.63
2023-10-20T07:53:42.254Z,11.85
2023-10-20T07:56:10.127Z,9.87
2023-10-20T07:58:38.250Z,8.73
2023-10-20T08:01:07.850Z,10.05
2023-10-20T08:03:35.914Z,9.48
2023-10-20T08:06:04.732Z,8.65
2023-10-20T08:08:34.067Z,9.03
2023-10-20T08:11:06.679Z,9.68
2023-10-20T08:13:39.214Z,8.45
2023-10-20T08:16:08.360Z,9.73
2023-10-20T08:18:37.077Z,8.88
2023-10-20T08:21:09.590Z,8.57
2023-10-20T08:23:41.045Z,9.57
2023-10-20T08:26:16.098Z,11.43
2023-10-20T08:28:44.168Z,9.15
2023-10-20T08:31:18.212Z,9.80
2023-10-20T08:33:46.015Z,8.63
2023-10-20T08:36:17.486Z,10.02
2023-10-20T08:38:48.639Z,10.40
2023-10-20T08:41:18.620Z,9.55
2023-10-20T08:43:47.345Z,9.40
2023-10-20T08:46:17.519Z,8.30
2023-10-20T08:48:46.874Z,8.57
2023-10-20T08:51:18.278Z,8.82
2023-10-20T08:53:47.498Z,8.50
2023-10-20T08:56:16.176Z,9.65
2023-10-20T08:58:48.037Z,8.23
2023-10-20T09:01:18.455Z,8.83
2023-10-20T09:03:50.145Z,10.63
2023-10-20T09:06:18.153Z,7.88
2023-10-20T09:08:52.532Z,8.60
2023-10-20T09:14:00.703Z,9.30
2023-10-20T09:16:28.530Z,5.97
2023-10-20T09:18:56.428Z,7.35
2023-10-20T09:21:26.951Z,6.78
2023-10-20T09:24:01.935Z,6.78
2023-10-20T09:26:32.025Z,6.90
2023-10-20T09:29:00.044Z,6.30
2023-10-20T09:31:29.903Z,6.57
2023-10-20T09:33:57.580Z,7.75
2023-10-20T09:36:26.053Z,8.88
2023-10-20T09:38:55.624Z,6.87
2023-10-20T09:41:25.629Z,6.60
2023-10-20T09:44:01.763Z,7.13
2023-10-20T09:46:29.497Z,7.03
2023-10-20T09:49:01.413Z,8.68
2023-10-20T09:51:29.020Z,7.10
2023-10-20T09:53:57.888Z,5.77
2023-10-20T09:56:26.170Z,5.85
2023-10-20T09:59:03.465Z,7.75
2023-10-20T10:01:32.392Z,5.90
2023-10-20T10:04:10.003Z,6.18
2023-10-20T10:06:38.632Z,6.00
2023-10-20T10:09:06.997Z,7.03
2023-10-20T10:11:44.495Z,5.88
2023-10-20T10:14:22.800Z,7.30
2023-10-20T10:16:55.362Z,6.18
2023-10-20T10:19:28.312Z,6.10
2023-10-20T10:22:00.986Z,7.10
2023-10-20T10:24:33.022Z,5.60
2023-10-20T10:27:06.035Z,6.80
2023-10-20T10:29:50.794Z,7.13
2023-10-20T10:32:21.029Z,7.45
2023-10-20T10:34:55.696Z,7.47
2023-10-20T10:37:36.526Z,8.25
2023-10-20T10:40:15.563Z,8.00
2023-10-20T10:43:00.911Z,6.85
2023-10-20T10:45:32.920Z,8.13
2023-10-20T10:48:12.750Z,8.20
2023-10-20T10:50:44.698Z,7.90
2023-10-20T10:53:14.459Z,8.40
2023-10-20T10:55:44.256Z,9.35
2023-10-20T10:58:16.238Z,10.90
2023-10-20T11:00:46.109Z,9.83
2023-10-20T11:03:15.772Z,9.40
2023-10-20T11:05:44.290Z,9.30
2023-10-20T11:08:14.986Z,8.63
2023-10-20T11:10:47.874Z,8.50
2023-10-20T11:13:17.729Z,9.97
2023-10-20T11:15:51.574Z,9.07
2023-10-20T11:18:22.023Z,10.18
2023-10-20T11:20:50.997Z,9.18
2023-10-20T11:23:35.581Z,9.48
2023-10-20T11:26:04.046Z,8.90
2023-10-20T11:28:31.640Z,9.60
2023-10-20T11:30:59.617Z,9.38
2023-10-20T11:33:33.162Z,8.15
2023-10-20T11:36:04.833Z,9.73
2023-10-20T11:38:33.587Z,8.73
2023-10-20T11:41:01.717Z,8.73
2023-10-20T11:43:29.506Z,10.20
2023-10-20T11:46:00.195Z,9.30
2023-10-20T11:48:28.177Z,7.70
2023-10-20T11:50:56.014Z,7.80
2023-10-20T11:53:23.825Z,14.40
2023-10-20T11:55:53.427Z,9.13
2023-10-20T11:58:21.059Z,8.75
2023-10-20T12:00:49.083Z,8.20
2023-10-20T12:03:16.886Z,8.02
2023-10-20T12:05:44.567Z,7.77
2023-10-20T12:08:12.228Z,7.00
2023-10-20T12:10:40.811Z,7.55
2023-10-20T12:13:08.631Z,6.47
2023-10-20T12:15:52.592Z,6.95
2023-10-20T12:18:20.383Z,7.27
2023-10-20T12:20:48.853Z,8.30
2023-10-20T12:23:19.025Z,7.53
2023-10-20T12:25:46.966Z,6.30
2023-10-20T12:28:14.617Z,6.82
2023-10-20T12:30:42.437Z,6.47
2023-10-20T12:33:10.296Z,6.47
2023-10-20T12:35:38.092Z,6.85
2023-10-20T12:38:07.763Z,6.45
2023-10-20T12:40:35.936Z,6.47
2023-10-20T12:43:07.243Z,6.25
2023-10-20T12:45:37.912Z,6.20
2023-10-20T12:48:09.747Z,6.57
2023-10-20T12:50:37.788Z,6.00
2023-10-20T12:53:06.089Z,5.65
2023-10-20T12:55:33.733Z,6.18
2023-10-20T12:58:03.764Z,5.27
2023-10-20T13:00:31.601Z,6.10
2023-10-20T13:02:59.390Z,6.10
2023-10-20T13:05:28.116Z,5.60
2023-10-20T13:07:55.747Z,6.18
2023-10-20T13:10:23.408Z,6.77
2023-10-20T13:12:51.407Z,6.05
2023-10-20T13:15:22.858Z,5.15
2023-10-20T13:17:50.631Z,5.30
2023-10-20T13:20:19.731Z,5.25
2023-10-20T13:22:47.449Z,6.23
2023-10-20T13:25:15.600Z,6.13
2023-10-20T13:27:43.356Z,7.60
2023-10-20T13:30:11.520Z,6.47
2023-10-20T13:32:39.204Z,5.75
2023-10-20T13:35:07.052Z,4.87
2023-10-20T13:37:34.659Z,5.43
2023-10-20T13:40:02.909Z,5.10
2023-10-20T13:42:32.430Z,5.82
2023-10-20T13:45:00.205Z,5.30
2023-10-20T13:47:28.030Z,5.63
2023-10-20T13:49:55.989Z,5.60
2023-10-20T13:52:26.465Z,5.10
2023-10-20T13:54:54.374Z,6.47
2023-10-20T13:57:22.930Z,5.43
2023-10-20T13:59:50.755Z,5.68
2023-10-20T14:02:19.540Z,5.77
2023-10-20T14:04:47.258Z,5.87
2023-10-20T14:07:14.848Z,5.53
2023-10-20T14:09:42.451Z,4.97
2023-10-20T14:12:10.161Z,5.70
2023-10-20T14:14:37.882Z,5.32
2023-10-20T14:17:08.354Z,6.67
2023-10-20T14:19:36.334Z,5.72
2023-10-20T14:22:05.006Z,5.85
2023-10-20T14:24:32.695Z,5.55
2023-10-20T14:27:00.431Z,5.88
2023-10-20T14:29:28.337Z,6.07
2023-10-20T14:31:57.795Z,6.75
2023-10-20T14:34:25.557Z,6.55
2023-10-20T14:36:53.076Z,6.15
2023-10-20T14:39:20.754Z,6.90
2023-10-20T14:41:48.641Z,5.73
2023-10-20T14:44:16.523Z,6.10
2023-10-20T14:46:45.964Z,6.65
2023-10-20T14:49:15.588Z,8.60
2023-10-20T14:51:43.229Z,5.70
2023-10-20T14:54:10.934Z,5.83
2023-10-20T14:56:38.574Z,6.10
2023-10-20T14:59:07.212Z,6.22
2023-10-20T15:01:34.893Z,6.32
2023-10-20T15:04:22.202Z,6.15
2023-10-20T15:06:57.268Z,6.05
2023-10-20T15:09:25.205Z,5.40
2023-10-20T15:11:53.170Z,5.65
2023-10-20T15:14:20.873Z,5.40
2023-10-20T15:16:48.577Z,5.22
2023-10-20T15:19:16.191Z,5.68
2023-10-20T15:21:44.534Z,5.97
2023-10-20T15:24:12.352Z,5.35
2023-10-20T15:26:40.131Z,5.55
2023-10-20T15:29:07.838Z,6.10
2023-10-20T15:31:35.721Z,5.30
2023-10-20T15:34:04.442Z,5.93
2023-10-20T15:36:47.085Z,5.85
2023-10-20T15:39:16.175Z,7.43
2023-10-20T15:41:43.896Z,6.25
2023-10-20T15:44:11.670Z,5.63
2023-10-20T15:46:41.644Z,6.60
2023-10-20T15:49:10.194Z,6.53
2023-10-20T15:54:23.318Z,6.00
2023-10-20T15:56:53.843Z,5.95
2023-10-20T15:59:23.925Z,9.38
2023-10-20T16:02:02.000Z,6.10
2023-10-20T16:04:29.683Z,6.30
2023-10-20T16:06:58.493Z,6.35
2023-10-20T16:09:27.318Z,8.18
2023-10-20T16:11:55.008Z,6.65
2023-10-20T16:14:22.709Z,6.67
2023-10-20T16:16:50.402Z,7.70
2023-10-20T16:19:17.978Z,9.27
2023-10-20T16:21:45.646Z,6.82
2023-10-20T16:24:19.439Z,6.03
2023-10-20T16:26:49.569Z,6.60
2023-10-20T16:29:17.797Z,7.23
2023-10-20T16:31:45.657Z,7.65
2023-10-20T16:34:13.593Z,6.35
2023-10-20T16:36:41.581Z,7.10
2023-10-20T16:39:09.365Z,6.72
2023-10-20T16:41:37.102Z,7.40
2023-10-20T16:44:05.381Z,7.80
2023-10-20T16:46:33.130Z,7.55
2023-10-20T16:49:03.666Z,7.20
2023-10-20T16:51:31.676Z,7.43
2023-10-20T16:53:59.440Z,8.77
2023-10-20T16:56:28.301Z,7.65
2023-10-20T16:58:55.937Z,7.15
2023-10-20T17:01:27.688Z,7.10
2023-10-20T17:03:55.513Z,9.63
2023-10-20T17:06:23.262Z,6.90
2023-10-20T17:08:51.384Z,6.72
2023-10-20T17:11:19.027Z,8.05
2023-10-20T17:13:46.906Z,8.30
2023-10-20T17:16:14.719Z,8.88
2023-10-20T17:18:46.758Z,8.47
2023-10-20T17:21:17.227Z,8.33
2023-10-20T17:23:48.009Z,10.60
2023-10-20T17:26:15.819Z,9.13
2023-10-20T17:28:43.834Z,9.40
2023-10-20T17:31:15.439Z,9.50
2023-10-20T17:33:46.832Z,9.73
2023-10-20T17:36:25.123Z,8.75
2023-10-20T17:39:07.874Z,8.80
2023-10-20T17:41:35.745Z,10.00
2023-10-20T17:44:27.309Z,8.38
2023-10-20T17:46:55.158Z,11.37
2023-10-20T17:49:22.841Z,10.82
2023-10-20T17:51:51.272Z,10.80
2023-10-20T17:54:19.016Z,10.73
2023-10-20T17:56:46.724Z,13.50
2023-10-20T17:59:14.518Z,11.97
2023-10-20T18:01:42.190Z,10.70
2023-10-20T18:04:10.151Z,11.68
2023-10-20T18:06:37.926Z,10.65
2023-10-20T18:09:06.162Z,10.57
2023-10-20T18:11:34.057Z,9.50
2023-10-20T18:14:01.744Z,10.37
2023-10-20T18:16:30.823Z,10.77
2023-10-20T18:18:58.538Z,12.20
2023-10-20T18:21:26.539Z,12.20
2023-10-20T18:23:58.755Z,13.20
2023-10-20T18:26:26.579Z,12.50
2023-10-20T18:28:55.345Z,13.02
2023-10-20T18:31:23.882Z,12.23
2023-10-20T18:33:54.025Z,12.15
2023-10-20T18:36:22.416Z,11.88
2023-10-20T18:38:50.320Z,11.00
2023-10-20T18:41:22.448Z,13.15
2023-10-20T18:43:50.402Z,11.20
2023-10-20T18:46:21.412Z,11.60
2023-10-20T18:48:49.628Z,12.35
2023-10-20T18:51:20.786Z,12.30
2023-10-20T18:53:50.418Z,11.93
2023-10-20T18:56:18.203Z,11.98
2023-10-20T18:58:47.638Z,10.80
2023-10-20T19:01:16.157Z,11.68
2023-10-20T19:03:44.141Z,12.05
2023-10-20T19:06:14.210Z,11.37
2023-10-20T19:08:42.027Z,9.05
2023-10-20T19:11:11.840Z,7.97
2023-10-20T19:13:39.881Z,8.43
2023-10-20T19:16:09.056Z,8.55
2023-10-20T19:18:36.983Z,8.87
2023-10-20T19:21:08.086Z,9.52
2023-10-20T19:23:39.118Z,10.40
2023-10-20T19:26:09.217Z,9.80
2023-10-20T19:28:39.841Z,8.80
2023-10-20T19:31:11.009Z,8.90
2023-10-20T19:33:39.496Z,9.35
2023-10-20T19:36:09.165Z,9.80
2023-10-20T19:38:37.063Z,8.60
2023-10-20T19:41:04.903Z,9.52
2023-10-20T19:43:32.562Z,10.40
2023-10-20T19:46:02.678Z,10.10
2023-10-20T19:48:30.453Z,10.57
2023-10-20T19:51:01.022Z,10.65
2023-10-20T19:53:28.783Z,11.23
2023-10-20T19:55:57.506Z,10.97
2023-10-20T19:58:25.143Z,11.98
2023-10-20T20:00:52.886Z,9.30
2023-10-20T20:03:20.603Z,8.52
2023-10-20T20:05:48.598Z,10.35
2023-10-20T20:08:16.274Z,10.30
2023-10-20T20:10:44.184Z,10.15
2023-10-20T20:13:11.910Z,9.55
2023-10-20T20:15:40.551Z,8.68
2023-10-20T20:18:08.273Z,8.82
2023-10-20T20:20:36.021Z,9.80
2023-10-20T20:23:03.784Z,8.73
2023-10-20T20:25:31.464Z,9.63
2023-10-20T20:27:59.122Z,8.88
2023-10-20T20:30:26.803Z,9.27
2023-10-20T20:32:54.642Z,7.47
2023-10-20T20:35:23.315Z,7.22
2023-10-20T20:37:53.284Z,8.52
2023-10-20T20:40:23.288Z,8.40
2023-10-20T20:42:54.774Z,8.38
2023-10-20T20:45:22.423Z,6.87
2023-10-20T20:48:03.517Z,8.20
2023-10-20T20:50:33.808Z,7.88
2023-10-20T20:53:05.836Z,8.38
2023-10-20T20:55:37.202Z,9.35
2023-10-20T20:58:04.992Z,8.30
2023-10-20T21:00:32.720Z,9.17
2023-10-20T21:03:00.996Z,7.72
2023-10-20T21:05:28.811Z,9.38
2023-10-20T21:07:56.586Z,9.18
2023-10-20T21:10:24.353Z,9.10
2023-10-20T21:12:54.628Z,7.90
2023-10-20T21:15:22.304Z,7.13
2023-10-20T21:17:50.021Z,8.65
2023-10-20T21:20:17.813Z,7.75
2023-10-20T21:22:45.495Z,9.25
2023-10-20T21:25:26.461Z,7.23
2023-10-20T21:27:55.493Z,7.40
2023-10-20T21:30:24.356Z,7.93
2023-10-20T21:32:53.503Z,8.75
2023-10-20T21:35:23.964Z,7.43
2023-10-20T21:37:51.661Z,7.00
2023-10-20T21:40:19.237Z,7.82
2023-10-20T21:42:46.882Z,7.38
2023-10-20T21:45:22.100Z,8.32
2023-10-20T21:47:50.413Z,8.20
2023-10-20T21:50:18.244Z,8.23
2023-10-20T21:52:46.680Z,7.53
2023-10-20T21:55:14.292Z,7.78
2023-10-20T21:57:43.344Z,7.45
2023-10-20T22:00:17.661Z,8.40
2023-10-20T22:02:45.511Z,10.00
2023-10-20T22:05:16.301Z,7.83
2023-10-20T22:07:44.770Z,7.22
2023-10-20T22:10:12.836Z,8.40
2023-10-20T22:12:40.610Z,7.88
2023-10-20T22:15:09.203Z,7.38
2023-10-20T22:17:37.872Z,7.33
2023-10-20T22:20:06.702Z,8.48
2023-10-20T22:22:34.504Z,7.70
2023-10-20T22:25:02.231Z,8.18
2023-10-20T22:27:30.670Z,8.05
2023-10-20T22:29:59.437Z,8.37
2023-10-20T22:32:29.688Z,7.65
2023-10-20T22:35:02.727Z,12.27
2023-10-20T22:37:51.062Z,7.93
2023-10-20T22:40:18.964Z,7.25
2023-10-20T22:42:47.708Z,8.10
2023-10-20T22:45:15.377Z,11.40
2023-10-20T22:47:44.346Z,7.82
2023-10-20T22:50:13.068Z,7.93
2023-10-20T22:52:40.745Z,7.32
2023-10-20T22:55:12.334Z,7.07
2023-10-20T22:57:39.960Z,7.70
2023-10-20T23:00:12.150Z,7.63
2023-10-20T23:02:41.573Z,6.72
2023-10-20T23:05:10.688Z,7.68
2023-10-20T23:07:38.564Z,7.73
2023-10-20T23:10:06.807Z,6.63
2023-10-20T23:12:36.626Z,7.82
2023-10-20T23:15:07.839Z,7.30
2023-10-20T23:17:35.790Z,7.13
2023-10-20T23:20:04.794Z,6.90
2023-10-20T23:22:33.532Z,7.78
2023-10-20T23:25:01.197Z,6.80
2023-10-20T23:27:29.004Z,6.68
2023-10-20T23:29:56.786Z,7.28
2023-10-20T23:32:24.441Z,7.40
2023-10-20T23:34:55.209Z,6.70
2023-10-20T23:37:23.094Z,6.90
2023-10-20T23:39:52.137Z,7.75
2023-10-20T23:42:19.876Z,6.78
2023-10-20T23:44:47.710Z,6.87
2023-10-20T23:47:15.405Z,7.25
2023-10-20T23:49:43.297Z,8.45
2023-10-20T23:52:11.051Z,7.13
2023-10-20T23:54:38.761Z,7.43
2023-10-20T23:57:06.447Z,9.67
2023-10-20T23:59:34.245Z,7.40
